Date,TemperatureHighF,TemperatureAvgF,TemperatureLowF,DewpointHighF,DewpointAvgF,DewpointLowF,HumidityHigh,HumidityAvg,HumidityLow,PressureMaxIn,PressureMinIn,WindSpeedMaxMPH,WindSpeedAvgMPH,GustSpeedMaxMPH,PrecipitationSumIn
2013-1-1,50,39,30,37,34,29,97,82,56,30.35,30.29,18,2,18,0.00
2013-1-2,54,38,27,37,31,26,97,79,42,30.33,30.22,15,1,15,0.01
2013-1-3,53,37,26,42,33,25,97,87,63,30.36,30.25,12,1,12,0.00
2013-1-4,55,40,30,39,34,29,98,81,49,30.37,30.26,14,1,14,0.01
2013-1-5,54,41,31,47,39,30,98,93,75,30.34,30.16,10,0,0,0.31
2013-1-6,48,43,35,46,42,35,98,96,90,30.27,30.15,15,1,15,0.05
2013-1-7,59,43,32,50,40,31,99,90,64,30.33,30.23,10,0,0,0.01
2013-1-8,58,44,37,47,41,36,99,89,67,30.31,30.20,10,1,0,0.00
2013-1-9,51,43,36,49,41,35,99,90,75,30.23,30.05,17,1,17,0.01
2013-1-10,49,40,32,38,34,30,98,79,50,30.26,30.14,18,1,18,0.00
2013-1-11,52,40,31,41,34,29,95,81,54,30.33,30.19,12,1,12,0.00
2013-1-12,51,37,27,36,29,22,97,78,36,30.33,30.21,11,0,0,0.01
2013-1-13,49,34,24,28,24,17,94,70,30,30.34,30.25,10,1,0,0.01
2013-1-14,49,36,25,28,21,14,91,59,28,30.48,30.30,23,2,23,0.00
2013-1-15,51,36,26,32,28,24,95,76,44,30.56,30.48,12,1,12,0.00
2013-1-16,55,38,26,37,31,25,97,78,44,30.52,30.34,12,1,12,0.00
2013-1-17,61,42,29,38,31,27,97,70,29,30.35,30.23,15,1,15,0.01
2013-1-18,62,42,28,38,32,27,98,71,29,30.31,30.21,16,1,16,0.00
2013-1-19,60,42,27,38,32,25,95,72,40,30.34,30.24,15,2,15,0.01
2013-1-20,62,42,28,36,31,26,95,70,29,30.31,30.21,14,1,14,0.00
2013-1-21,62,42,27,41,34,25,96,75,44,30.26,30.17,14,1,14,0.00
2013-1-22,60,44,30,44,38,29,97,80,53,30.20,30.09,10,1,0,0.01
2013-1-23,53,47,42,49,45,40,97,93,78,30.17,30.03,8,0,0,0.09
2013-1-24,57,52,47,52,50,46,97,90,80,30.26,30.14,13,2,13,0.01
2013-1-25,66,55,48,56,52,47,98,88,71,30.25,30.09,10,1,0,0.00
2013-1-26,56,49,42,51,43,36,99,83,48,30.14,30.04,18,2,18,0.01
2013-1-27,55,44,33,41,36,29,97,76,38,30.23,30.12,13,1,13,0.00
2013-1-28,58,45,36,43,38,34,94,78,47,30.35,30.23,13,1,13,0.00
2013-1-29,60,45,35,43,38,34,97,80,45,30.42,30.33,9,1,0,0.00
2013-1-30,65,46,34,46,39,33,98,79,47,30.42,30.33,12,1,12,0.00
2013-1-31,63,46,32,48,40,31,98,83,56,30.37,30.25,10,1,0,0.01